createdAt,value
2019-02-02T00:02:03.488Z,99289.67
2019-02-02T00:04:10.909Z,99285.86
2019-02-02T00:06:17.840Z,99285.86
2019-02-02T00:08:24.951Z,99291.65
2019-02-02T00:10:31.920Z,99289.05
2019-02-02T00:12:38.919Z,99281.70
2019-02-02T00:14:46.521Z,99289.84
2019-02-02T00:16:53.473Z,99287.25
2019-02-02T00:19:00.582Z,99276.84
2019-02-02T00:21:07.912Z,99275.16
2019-02-02T00:23:15.217Z,99281.88
2019-02-02T00:25:22.204Z,99275.55
2019-02-02T00:27:40.784Z,99276.34
2019-02-02T00:29:38.019Z,99269.43
2019-02-02T00:31:45.068Z,99267.54
2019-02-02T00:33:52.125Z,99265.03
2019-02-02T00:35:59.170Z,99260.58
2019-02-02T00:38:06.205Z,99255.13
2019-02-02T00:40:13.307Z,99250.14
2019-02-02T00:42:20.403Z,99249.17
2019-02-02T00:44:27.375Z,99256.14
2019-02-02T00:46:34.389Z,99248.00
2019-02-02T00:48:41.429Z,99243.97
2019-02-02T00:50:48.520Z,99254.88
2019-02-02T00:52:55.596Z,99245.52
2019-02-02T00:55:02.610Z,99241.20
2019-02-02T00:57:09.682Z,99242.17
2019-02-02T00:59:16.635Z,99226.98
2019-02-02T01:02:39.290Z,99228.11
2019-02-02T01:04:46.352Z,99236.46
2019-02-02T01:06:54.333Z,99238.91
2019-02-02T01:09:01.322Z,99244.58
2019-02-02T01:11:09.079Z,99243.48
2019-02-02T01:13:16.107Z,99241.44
2019-02-02T01:15:23.183Z,99228.60
2019-02-02T01:17:30.172Z,99213.41
2019-02-02T01:19:37.160Z,99212.16
2019-02-02T01:21:44.205Z,99217.13
2019-02-02T01:23:51.193Z,99213.72
2019-02-02T01:25:58.201Z,99218.54
2019-02-02T01:28:05.819Z,99213.38
2019-02-02T01:30:15.000Z,99205.91
2019-02-02T01:32:22.080Z,99218.13
2019-02-02T01:34:29.176Z,99214.59
2019-02-02T01:36:36.162Z,99211.02
2019-02-02T01:38:43.289Z,99205.17
2019-02-02T01:40:50.315Z,99196.98
2019-02-02T01:42:57.298Z,99190.02
2019-02-02T01:45:04.305Z,99183.66
2019-02-02T01:47:11.326Z,99181.65
2019-02-02T01:49:18.360Z,99173.20
2019-02-02T01:51:25.393Z,99177.80
2019-02-02T01:53:32.454Z,99183.74
2019-02-02T01:55:39.740Z,99181.38
2019-02-02T01:57:47.167Z,99168.78
2019-02-02T01:59:54.603Z,99177.25
2019-02-02T02:02:01.999Z,99171.90
2019-02-02T02:04:08.942Z,99150.84
2019-02-02T02:06:15.897Z,99153.45
2019-02-02T02:08:22.941Z,99154.37
2019-02-02T02:10:29.991Z,99161.20
2019-02-02T02:12:37.349Z,99154.97
2019-02-02T02:14:44.502Z,99156.97
2019-02-02T02:16:51.455Z,99155.67
2019-02-02T02:18:58.475Z,99155.34
2019-02-02T02:21:05.490Z,99148.97
2019-02-02T02:23:12.519Z,99153.86
2019-02-02T02:25:20.768Z,99143.44
2019-02-02T02:27:27.861Z,99140.37
2019-02-02T02:29:35.820Z,99143.44
2019-02-02T02:31:42.885Z,99142.00
2019-02-02T02:33:49.874Z,99137.39
2019-02-02T02:35:56.995Z,99134.93
2019-02-02T02:38:04.054Z,99142.52
2019-02-02T02:40:13.409Z,99132.89
2019-02-02T02:42:20.353Z,99135.91
2019-02-02T02:44:27.359Z,99133.35
2019-02-02T02:46:34.570Z,99136.80
2019-02-02T02:48:41.616Z,99136.94
2019-02-02T02:50:48.835Z,99142.79
2019-02-02T02:52:55.756Z,99151.33
2019-02-02T02:55:02.790Z,99144.88
2019-02-02T02:57:10.624Z,99144.36
2019-02-02T02:59:17.633Z,99143.66
2019-02-02T03:01:24.758Z,99145.34
2019-02-02T03:03:31.809Z,99148.14
2019-02-02T03:05:38.802Z,99148.48
2019-02-02T03:07:45.870Z,99149.70
2019-02-02T03:09:52.868Z,99151.02
2019-02-02T03:11:59.945Z,99146.97
2019-02-02T03:14:07.089Z,99136.96
2019-02-02T03:16:14.103Z,99136.55
2019-02-02T03:18:21.188Z,99133.58
2019-02-02T03:20:28.184Z,99132.37
2019-02-02T03:22:35.179Z,99136.55
2019-02-02T03:24:42.184Z,99139.16
2019-02-02T03:26:49.160Z,99130.97
2019-02-02T03:28:56.152Z,99140.19
2019-02-02T03:31:03.079Z,99139.37
2019-02-02T03:33:10.161Z,99138.91
2019-02-02T03:35:19.438Z,99135.52
2019-02-02T03:37:26.528Z,99137.23
2019-02-02T03:39:33.637Z,99142.36
2019-02-02T03:41:41.063Z,99131.94
2019-02-02T03:43:48.122Z,99139.70
2019-02-02T03:45:55.513Z,99137.36
2019-02-02T03:48:02.564Z,99133.56
2019-02-02T03:50:09.986Z,99140.34
2019-02-02T03:52:17.019Z,99141.53
2019-02-02T03:54:24.107Z,99145.03
2019-02-02T03:56:31.214Z,99140.75
2019-02-02T03:58:38.165Z,99141.78
2019-02-02T04:00:45.201Z,99135.08
2019-02-02T04:02:52.311Z,99130.60
2019-02-02T04:04:59.429Z,99132.28
2019-02-02T04:07:06.495Z,99135.03
2019-02-02T04:09:13.561Z,99130.08
2019-02-02T04:11:20.981Z,99138.55
2019-02-02T04:13:28.064Z,99135.01
2019-02-02T04:15:35.051Z,99122.59
2019-02-02T04:17:42.199Z,99133.47
2019-02-02T04:19:49.190Z,99133.53
2019-02-02T04:21:56.166Z,99132.03
2019-02-02T04:24:03.253Z,99132.16
2019-02-02T04:26:10.224Z,99122.50
2019-02-02T04:28:17.267Z,99123.80
2019-02-02T04:30:27.810Z,99122.65
2019-02-02T04:32:34.878Z,99123.87
2019-02-02T04:34:41.865Z,99131.63
2019-02-02T04:36:48.792Z,99126.67
2019-02-02T04:38:56.216Z,99128.14
2019-02-02T04:41:03.390Z,99125.73
2019-02-02T04:43:10.330Z,99127.92
2019-02-02T04:45:17.347Z,99123.19
2019-02-02T04:47:24.322Z,99120.50
2019-02-02T04:49:31.341Z,99115.60
2019-02-02T04:51:38.371Z,99119.72
2019-02-02T04:53:45.411Z,99123.42
2019-02-02T04:55:52.498Z,99116.47
2019-02-02T04:57:59.546Z,99109.61
2019-02-02T05:00:09.670Z,99123.83
2019-02-02T05:02:16.713Z,99128.31
2019-02-02T05:04:24.152Z,99129.36
2019-02-02T05:06:31.219Z,99122.90
2019-02-02T05:08:38.256Z,99130.34
2019-02-02T05:10:45.384Z,99127.59
2019-02-02T05:12:53.089Z,99120.81
2019-02-02T05:15:00.326Z,99125.36
2019-02-02T05:17:07.492Z,99123.53
2019-02-02T05:19:14.564Z,99125.05
2019-02-02T05:21:21.666Z,99130.45
2019-02-02T05:23:28.768Z,99123.48
2019-02-02T05:25:36.736Z,99120.81
2019-02-02T05:27:43.895Z,99123.42
2019-02-02T05:29:50.945Z,99114.67
2019-02-02T05:31:57.898Z,99113.62
2019-02-02T05:34:04.923Z,99113.16
2019-02-02T05:36:11.981Z,99109.09
2019-02-02T05:38:19.030Z,99099.70
2019-02-02T05:40:26.049Z,99106.33
2019-02-02T05:42:33.028Z,99110.03
2019-02-02T05:44:40.108Z,99109.61
2019-02-02T05:46:47.167Z,99105.23
2019-02-02T05:48:54.208Z,99106.74
2019-02-02T05:51:01.286Z,99113.52
2019-02-02T05:53:08.335Z,99109.83
2019-02-02T05:55:16.319Z,99111.00
2019-02-02T05:57:23.307Z,99113.04
2019-02-02T05:59:30.326Z,99113.99
2019-02-02T06:01:37.467Z,99117.80
2019-02-02T06:03:44.503Z,99111.00
2019-02-02T06:05:51.557Z,99110.74
2019-02-02T06:07:58.568Z,99116.59
2019-02-02T06:10:06.731Z,99104.48
2019-02-02T06:12:13.737Z,99109.34
2019-02-02T06:14:20.822Z,99115.28
2019-02-02T06:16:27.872Z,99118.30
2019-02-02T06:18:35.069Z,99119.72
2019-02-02T06:20:42.136Z,99110.07
2019-02-02T06:22:49.210Z,99114.91
2019-02-02T06:24:56.261Z,99120.86
2019-02-02T06:27:03.333Z,99115.18
2019-02-02T06:29:10.429Z,99112.05
2019-02-02T06:31:17.541Z,99122.58
2019-02-02T06:33:24.742Z,99115.96
2019-02-02T06:35:31.875Z,99118.30
2019-02-02T06:37:39.435Z,99123.36
2019-02-02T06:39:46.766Z,99131.56
2019-02-02T06:41:54.629Z,99131.56
2019-02-02T06:44:02.134Z,99120.34
2019-02-02T06:46:09.643Z,99116.69
2019-02-02T06:48:17.152Z,99112.14
2019-02-02T06:50:24.659Z,99122.69
2019-02-02T06:52:31.915Z,99127.38
2019-02-02T06:54:38.988Z,99121.78
2019-02-02T06:56:46.093Z,99123.93
2019-02-02T06:58:53.402Z,99137.49
2019-02-02T07:01:00.866Z,99138.99
2019-02-02T07:03:08.016Z,99129.71
2019-02-02T07:05:15.295Z,99137.79
2019-02-02T07:07:22.493Z,99138.69
2019-02-02T07:09:29.606Z,99137.01
2019-02-02T07:11:36.788Z,99136.37
2019-02-02T07:13:44.173Z,99132.17
2019-02-02T07:15:51.331Z,99131.33
2019-02-02T07:17:58.491Z,99134.38
2019-02-02T07:20:06.701Z,99129.69
2019-02-02T07:22:14.119Z,99129.78
2019-02-02T07:24:21.502Z,99133.08
2019-02-02T07:26:28.735Z,99139.59
2019-02-02T07:28:36.088Z,99139.97
2019-02-02T07:30:43.212Z,99132.70
2019-02-02T07:32:50.338Z,99137.86
2019-02-02T07:34:57.525Z,99137.45
2019-02-02T07:37:04.628Z,99131.96
2019-02-02T07:39:11.883Z,99135.25
2019-02-02T07:41:19.116Z,99132.48
2019-02-02T07:43:26.815Z,99137.86
2019-02-02T07:45:35.374Z,99132.43
2019-02-02T07:47:42.642Z,99134.14
2019-02-02T07:49:49.860Z,99129.88
2019-02-02T07:51:57.255Z,99136.81
2019-02-02T07:54:04.578Z,99146.03
2019-02-02T07:56:11.769Z,99134.98
2019-02-02T07:58:19.152Z,99142.80
2019-02-02T08:00:41.196Z,99145.51
2019-02-02T08:02:47.464Z,99138.98
2019-02-02T08:04:54.530Z,99143.67
2019-02-02T08:07:01.727Z,99135.59
2019-02-02T08:09:10.763Z,99138.98
2019-02-02T08:11:17.842Z,99134.79
2019-02-02T08:13:25.085Z,99132.17
2019-02-02T08:15:33.806Z,99135.88
2019-02-02T08:17:41.007Z,99131.42
2019-02-02T08:19:48.099Z,99131.42
2019-02-02T08:21:55.161Z,99138.26
2019-02-02T08:24:03.154Z,99136.14
2019-02-02T08:26:10.206Z,99135.83
2019-02-02T08:28:17.364Z,99129.86
2019-02-02T08:30:27.708Z,99139.36
2019-02-02T08:32:34.908Z,99133.02
2019-02-02T08:34:42.009Z,99132.61
2019-02-02T08:36:49.108Z,99126.95
2019-02-02T08:38:56.230Z,99136.70
2019-02-02T08:41:03.367Z,99136.30
2019-02-02T08:43:10.520Z,99133.70
2019-02-02T08:45:17.857Z,99138.63
2019-02-02T08:47:25.015Z,99133.17
2019-02-02T08:49:32.120Z,99140.95
2019-02-02T08:51:39.165Z,99145.10
2019-02-02T08:53:46.281Z,99133.66
2019-02-02T08:55:53.352Z,99131.81
2019-02-02T08:58:00.493Z,99138.28
2019-02-02T09:00:11.196Z,99144.58
2019-02-02T09:02:18.279Z,99145.95
2019-02-02T09:04:25.423Z,99142.97
2019-02-02T09:06:39.231Z,99145.10
2019-02-02T09:08:41.291Z,99136.97
2019-02-02T09:10:48.418Z,99143.98
2019-02-02T09:12:55.572Z,99144.52
2019-02-02T09:15:02.791Z,99143.58
2019-02-02T09:17:09.806Z,99140.06
2019-02-02T09:19:16.846Z,99144.28
2019-02-02T09:21:23.995Z,99148.11
2019-02-02T09:23:31.143Z,99149.51
2019-02-02T09:25:38.353Z,99146.13
2019-02-02T09:27:45.604Z,99153.42
2019-02-02T09:29:53.030Z,99146.73
2019-02-02T09:32:00.283Z,99145.95
2019-02-02T09:34:07.354Z,99149.52
2019-02-02T09:36:16.743Z,99152.19
2019-02-02T09:38:23.378Z,99154.27
2019-02-02T09:40:30.463Z,99150.81
2019-02-02T09:42:37.554Z,99146.80
2019-02-02T09:44:44.731Z,99148.67
2019-02-02T09:46:52.021Z,99151.42
2019-02-02T09:48:59.264Z,99147.67
2019-02-02T09:51:07.357Z,99142.88
2019-02-02T09:53:14.450Z,99142.28
2019-02-02T09:55:23.094Z,99146.27
2019-02-02T09:57:31.243Z,99139.90
2019-02-02T09:59:38.417Z,99142.67
2019-02-02T10:01:45.566Z,99139.05
2019-02-02T10:03:52.669Z,99148.27
2019-02-02T10:06:00.106Z,99145.73
2019-02-02T10:08:07.145Z,99139.28
2019-02-02T10:10:18.466Z,99131.87
2019-02-02T10:12:25.590Z,99144.57
2019-02-02T10:14:33.262Z,99140.89
2019-02-02T10:16:40.574Z,99137.04
2019-02-02T10:18:47.999Z,99138.50
2019-02-02T10:21:03.753Z,99133.64
2019-02-02T10:23:04.453Z,99136.89
2019-02-02T10:25:13.964Z,99137.08
2019-02-02T10:27:21.240Z,99134.16
2019-02-02T10:29:30.256Z,99129.87
2019-02-02T10:31:39.742Z,99128.78
2019-02-02T10:33:46.281Z,99123.06
2019-02-02T10:35:53.342Z,99125.66
2019-02-02T10:38:00.456Z,99129.11
2019-02-02T10:40:09.337Z,99127.97
2019-02-02T10:42:16.503Z,99125.43
2019-02-02T10:44:24.049Z,99121.66
2019-02-02T10:46:31.473Z,99112.50
2019-02-02T10:48:39.314Z,99108.59
2019-02-02T10:50:46.616Z,99107.20
2019-02-02T10:52:54.153Z,99112.80
2019-02-02T10:55:03.321Z,99112.48
2019-02-02T10:57:10.793Z,99108.92
2019-02-02T10:59:18.442Z,99120.44
2019-02-02T11:01:26.184Z,99119.48
2019-02-02T11:03:33.779Z,99109.92
2019-02-02T11:05:41.401Z,99109.02
2019-02-02T11:07:49.002Z,99118.98
2019-02-02T11:09:56.725Z,99107.63
2019-02-02T11:12:04.365Z,99111.81
2019-02-02T11:14:12.252Z,99110.51
2019-02-02T11:16:20.133Z,99111.30
2019-02-02T11:18:27.793Z,99109.16
2019-02-02T11:20:36.320Z,99110.07
2019-02-02T11:22:43.930Z,99111.03
2019-02-02T11:24:51.402Z,99117.59
2019-02-02T11:26:58.997Z,99104.98
2019-02-02T11:29:06.379Z,99103.42
2019-02-02T11:31:13.984Z,99106.81
2019-02-02T11:33:21.232Z,99108.41
2019-02-02T11:35:28.436Z,99105.42
2019-02-02T11:37:36.395Z,99099.06
2019-02-02T11:39:43.908Z,99103.87
2019-02-02T11:41:51.109Z,99100.58
2019-02-02T11:43:58.305Z,99103.30
2019-02-02T11:46:05.393Z,99105.56
2019-02-02T11:48:14.994Z,99103.03
2019-02-02T11:50:21.509Z,99102.66
2019-02-02T11:52:28.751Z,99097.59
2019-02-02T11:54:35.828Z,99104.53
2019-02-02T11:56:43.107Z,99105.55
2019-02-02T11:58:50.278Z,99097.30
2019-02-02T12:00:57.714Z,99096.33
2019-02-02T12:03:04.955Z,99098.55
2019-02-02T12:05:12.126Z,99087.46
2019-02-02T12:07:19.284Z,99086.69
2019-02-02T12:09:26.426Z,99085.56
2019-02-02T12:11:34.040Z,99072.29
2019-02-02T12:13:41.624Z,99079.04
2019-02-02T12:15:49.105Z,99080.53
2019-02-02T12:17:56.787Z,99074.17
2019-02-02T12:20:04.237Z,99071.28
2019-02-02T12:22:11.370Z,99075.05
2019-02-02T12:24:18.726Z,99068.66
2019-02-02T12:26:26.410Z,99066.69
2019-02-02T12:28:33.982Z,99057.10
2019-02-02T12:30:43.004Z,99066.43
2019-02-02T12:32:50.135Z,99064.05
2019-02-02T12:34:57.958Z,99051.15
2019-02-02T12:37:05.167Z,99052.42
2019-02-02T12:39:13.282Z,99061.38
2019-02-02T12:41:21.036Z,99060.37
2019-02-02T12:43:28.551Z,99056.42
2019-02-02T12:45:49.230Z,99051.30
2019-02-02T12:47:56.586Z,99052.16
2019-02-02T12:50:04.099Z,99053.65
2019-02-02T12:52:11.742Z,99060.48
2019-02-02T12:54:19.127Z,99050.00
2019-02-02T12:56:26.747Z,99049.14
2019-02-02T12:58:34.270Z,99052.48
2019-02-02T13:00:44.274Z,99055.64
2019-02-02T13:02:51.992Z,99049.55
2019-02-02T13:04:59.744Z,99048.16
2019-02-02T13:07:07.544Z,99042.22
2019-02-02T13:09:15.317Z,99044.38
2019-02-02T13:11:23.998Z,99048.52
2019-02-02T13:13:32.203Z,99038.70
2019-02-02T13:15:40.225Z,99041.71
2019-02-02T13:17:47.632Z,99039.53
2019-02-02T13:19:55.472Z,99039.59
2019-02-02T13:22:03.437Z,99043.66
2019-02-02T13:24:10.804Z,99034.02
2019-02-02T13:26:18.151Z,99034.64
2019-02-02T13:28:25.614Z,99035.86
2019-02-02T13:30:35.394Z,99032.75
2019-02-02T13:32:49.404Z,99033.19
2019-02-02T13:34:51.887Z,99044.53
2019-02-02T13:36:59.362Z,99040.85
2019-02-02T13:39:10.442Z,99047.86
2019-02-02T13:41:17.945Z,99048.91
2019-02-02T13:43:25.198Z,99043.61
2019-02-02T13:45:32.661Z,99043.70
2019-02-02T13:47:40.265Z,99044.48
2019-02-02T13:49:47.476Z,99047.41
2019-02-02T13:51:55.023Z,99042.77
2019-02-02T13:54:02.547Z,99045.09
2019-02-02T13:56:10.123Z,99049.38
2019-02-02T13:58:17.603Z,99055.44
2019-02-02T14:00:30.729Z,99057.02
2019-02-02T14:02:38.081Z,99061.80
2019-02-02T14:04:45.286Z,99060.55
2019-02-02T14:06:52.661Z,99059.44
2019-02-02T14:09:00.133Z,99064.81
2019-02-02T14:11:07.622Z,99072.30
2019-02-02T14:13:14.919Z,99072.19
2019-02-02T14:15:22.511Z,99066.39
2019-02-02T14:17:29.530Z,99074.15
2019-02-02T14:19:37.074Z,99062.56
2019-02-02T14:21:44.546Z,99064.36
2019-02-02T14:23:51.970Z,99060.62
2019-02-02T14:25:59.288Z,99067.19
2019-02-02T14:28:06.790Z,99065.69
2019-02-02T14:30:20.552Z,99056.25
2019-02-02T14:32:27.965Z,99057.81
2019-02-02T14:34:40.226Z,99066.55
2019-02-02T14:36:44.566Z,99061.69
2019-02-02T14:38:52.376Z,99066.75
2019-02-02T14:41:17.818Z,99059.80
2019-02-02T14:43:24.972Z,99059.81
2019-02-02T14:45:32.323Z,99059.27
2019-02-02T14:47:40.642Z,99063.02
2019-02-02T14:49:47.765Z,99061.50
2019-02-02T14:51:54.851Z,99058.14
2019-02-02T14:54:02.015Z,99071.64
2019-02-02T14:56:09.202Z,99073.02
2019-02-02T14:58:16.375Z,99082.77
2019-02-02T15:00:26.190Z,99086.44
2019-02-02T15:02:33.320Z,99089.42
2019-02-02T15:04:40.454Z,99099.36
2019-02-02T15:06:47.773Z,99103.85
2019-02-02T15:08:54.862Z,99099.55
2019-02-02T15:11:01.996Z,99109.09
2019-02-02T15:13:09.170Z,99107.13
2019-02-02T15:15:16.524Z,99115.20
2019-02-02T15:17:23.738Z,99109.30
2019-02-02T15:19:30.855Z,99095.23
2019-02-02T15:21:38.053Z,99096.55
2019-02-02T15:23:45.498Z,99098.62
2019-02-02T15:25:53.297Z,99087.93
2019-02-02T15:28:00.527Z,99101.14
2019-02-02T15:30:10.129Z,99109.76
2019-02-02T15:32:17.293Z,99100.77
2019-02-02T15:34:24.430Z,99097.84
2019-02-02T15:36:31.457Z,99097.30
2019-02-02T15:38:38.942Z,99107.05
2019-02-02T15:40:46.049Z,99100.86
2019-02-02T15:42:53.167Z,99109.20
2019-02-02T15:45:00.328Z,99107.70
2019-02-02T15:47:07.320Z,99099.92
2019-02-02T15:49:14.473Z,99103.88
2019-02-02T15:51:21.682Z,99107.78
2019-02-02T15:53:28.763Z,99101.81
2019-02-02T15:55:35.920Z,99103.10
2019-02-02T15:57:43.040Z,99103.10
2019-02-02T15:59:50.322Z,99102.66
2019-02-02T16:01:58.408Z,99103.86
2019-02-02T16:04:05.505Z,99108.19
2019-02-02T16:06:12.742Z,99116.41
2019-02-02T16:08:19.826Z,99115.97
2019-02-02T16:10:28.964Z,99121.10
2019-02-02T16:12:36.109Z,99128.97
2019-02-02T16:14:43.440Z,99131.40
2019-02-02T16:16:50.714Z,99128.02
2019-02-02T16:18:57.884Z,99117.53
2019-02-02T16:21:05.094Z,99120.07
2019-02-02T16:23:12.488Z,99121.55
2019-02-02T16:25:20.258Z,99131.88
2019-02-02T16:27:27.859Z,99130.84
2019-02-02T16:29:35.452Z,99137.95
2019-02-02T16:31:42.645Z,99141.45
2019-02-02T16:34:01.169Z,99146.58
2019-02-02T16:35:58.930Z,99141.53
2019-02-02T16:38:06.207Z,99138.44
2019-02-02T16:40:17.154Z,99138.52
2019-02-02T16:42:24.475Z,99134.78
2019-02-02T16:44:31.934Z,99139.47
2019-02-02T16:46:39.468Z,99144.91
2019-02-02T16:48:46.970Z,99147.14
2019-02-02T16:50:56.710Z,99146.03
2019-02-02T16:53:03.240Z,99150.44
2019-02-02T16:55:11.221Z,99145.66
2019-02-02T16:57:18.361Z,99144.52
2019-02-02T16:59:25.429Z,99150.16
2019-02-02T17:01:32.601Z,99152.30
2019-02-02T17:03:39.676Z,99149.88
2019-02-02T17:05:46.790Z,99153.73
2019-02-02T17:07:54.297Z,99149.77
2019-02-02T17:10:01.431Z,99154.28
2019-02-02T17:12:08.493Z,99160.28
2019-02-02T17:14:17.775Z,99157.63
2019-02-02T17:16:24.414Z,99155.67
2019-02-02T17:18:31.510Z,99166.65
2019-02-02T17:20:42.151Z,99163.27
2019-02-02T17:22:49.328Z,99170.59
2019-02-02T17:24:57.012Z,99175.24
2019-02-02T17:27:04.336Z,99164.67
2019-02-02T17:29:11.542Z,99162.21
2019-02-02T17:31:18.668Z,99170.20
2019-02-02T17:33:26.658Z,99176.64
2019-02-02T17:35:34.169Z,99177.95
2019-02-02T17:37:41.250Z,99180.41
2019-02-02T17:39:48.439Z,99179.77
2019-02-02T17:41:55.718Z,99180.97
2019-02-02T17:44:03.110Z,99175.72
2019-02-02T17:46:10.334Z,99178.98
2019-02-02T17:48:17.542Z,99179.66
2019-02-02T17:50:25.991Z,99194.36
2019-02-02T17:52:33.049Z,99196.62
2019-02-02T17:54:40.272Z,99193.61
2019-02-02T17:56:47.512Z,99199.61
2019-02-02T17:58:55.186Z,99194.36
2019-02-02T18:01:03.382Z,99183.51
2019-02-02T18:03:10.557Z,99190.51
2019-02-02T18:05:17.865Z,99195.67
2019-02-02T18:07:25.174Z,99194.76
2019-02-02T18:09:32.266Z,99197.55
2019-02-02T18:11:39.393Z,99194.64
2019-02-02T18:13:46.656Z,99190.82
2019-02-02T18:15:53.766Z,99193.41
2019-02-02T18:18:02.516Z,99199.52
2019-02-02T18:20:12.510Z,99203.41
2019-02-02T18:22:19.705Z,99211.40
2019-02-02T18:24:26.985Z,99207.83
2019-02-02T18:26:34.693Z,99206.70
2019-02-02T18:28:42.030Z,99214.73
2019-02-02T18:30:49.294Z,99210.09
2019-02-02T18:32:56.647Z,99220.10
2019-02-02T18:35:04.190Z,99211.95
2019-02-02T18:37:11.506Z,99215.06
2019-02-02T18:39:18.931Z,99212.51
2019-02-02T18:41:26.029Z,99211.00
2019-02-02T18:43:33.215Z,99214.94
2019-02-02T18:45:40.330Z,99211.28
2019-02-02T18:47:47.788Z,99219.83
2019-02-02T18:49:54.995Z,99222.05
2019-02-02T18:52:02.137Z,99229.91
2019-02-02T18:54:09.525Z,99234.05
2019-02-02T18:56:18.502Z,99231.24
2019-02-02T18:58:25.743Z,99232.95
2019-02-02T19:00:32.971Z,99236.11
2019-02-02T19:02:40.154Z,99236.00
2019-02-02T19:04:47.466Z,99239.85
2019-02-02T19:06:54.645Z,99250.36
2019-02-02T19:09:01.988Z,99243.36
2019-02-02T19:11:09.563Z,99247.37
2019-02-02T19:13:16.956Z,99250.47
2019-02-02T19:15:24.332Z,99255.05
2019-02-02T19:17:32.404Z,99261.59
2019-02-02T19:19:39.942Z,99257.73
2019-02-02T19:21:47.409Z,99260.02
2019-02-02T19:23:54.664Z,99267.67
2019-02-02T19:26:01.826Z,99266.08
2019-02-02T19:28:10.214Z,99260.28
2019-02-02T19:30:23.898Z,99265.72
2019-02-02T19:32:31.034Z,99268.15
2019-02-02T19:34:38.254Z,99271.88
2019-02-02T19:36:45.604Z,99269.26
2019-02-02T19:38:52.917Z,99272.77
2019-02-02T19:41:00.842Z,99278.78
2019-02-02T19:43:09.009Z,99272.62
2019-02-02T19:45:18.806Z,99285.55
2019-02-02T19:47:26.312Z,99288.14
2019-02-02T19:49:33.777Z,99287.13
2019-02-02T19:51:41.068Z,99291.27
2019-02-02T19:53:48.249Z,99289.66
2019-02-02T19:55:55.756Z,99293.89
2019-02-02T19:58:03.233Z,99290.79
2019-02-02T20:00:24.267Z,99301.25
2019-02-02T20:02:32.500Z,99301.25
2019-02-02T20:04:39.751Z,99305.22
2019-02-02T20:06:46.889Z,99312.43
2019-02-02T20:08:54.047Z,99308.91
2019-02-02T20:11:01.238Z,99304.80
2019-02-02T20:13:08.513Z,99306.50
2019-02-02T20:15:18.516Z,99307.08
2019-02-02T20:17:25.637Z,99314.29
2019-02-02T20:19:32.960Z,99306.37
2019-02-02T20:21:40.119Z,99313.11
2019-02-02T20:23:47.253Z,99321.71
2019-02-02T20:25:54.790Z,99319.30
2019-02-02T20:28:02.044Z,99315.00
2019-02-02T20:30:13.072Z,99328.34
2019-02-02T20:32:20.275Z,99322.20
2019-02-02T20:34:27.481Z,99324.83
2019-02-02T20:36:35.036Z,99335.81
2019-02-02T20:38:43.253Z,99338.94
2019-02-02T20:40:50.690Z,99337.68
2019-02-02T20:42:57.973Z,99337.79
2019-02-02T20:45:06.013Z,99339.67
2019-02-02T20:47:13.316Z,99344.63
2019-02-02T20:49:21.189Z,99346.86
2019-02-02T20:51:29.032Z,99350.24
2019-02-02T20:53:36.429Z,99355.55
2019-02-02T20:55:46.099Z,99355.44
2019-02-02T20:57:53.616Z,99360.27
2019-02-02T21:00:00.952Z,99358.66
2019-02-02T21:02:08.138Z,99362.45
2019-02-02T21:04:16.473Z,99369.66
2019-02-02T21:06:24.048Z,99371.70
2019-02-02T21:08:31.837Z,99369.05
2019-02-02T21:10:39.006Z,99369.16
2019-02-02T21:12:46.197Z,99369.16
2019-02-02T21:14:53.697Z,99377.37
2019-02-02T21:17:00.856Z,99381.52
2019-02-02T21:19:08.243Z,99379.28
2019-02-02T21:21:15.370Z,99384.53
2019-02-02T21:23:23.025Z,99382.83
2019-02-02T21:25:30.066Z,99387.83
2019-02-02T21:27:37.405Z,99398.39
2019-02-02T21:29:44.999Z,99401.67
2019-02-02T21:31:52.307Z,99409.14
2019-02-02T21:33:59.503Z,99412.23
2019-02-02T21:36:07.120Z,99414.93
2019-02-02T21:38:14.555Z,99409.87
2019-02-02T21:40:25.017Z,99407.24
2019-02-02T21:42:32.806Z,99420.53
2019-02-02T21:44:43.321Z,99419.13
2019-02-02T21:46:49.413Z,99436.45
2019-02-02T21:48:56.614Z,99442.17
2019-02-02T21:51:03.805Z,99432.70
2019-02-02T21:53:11.507Z,99433.87
2019-02-02T21:55:21.708Z,99427.73
2019-02-02T21:57:29.832Z,99429.37
2019-02-02T21:59:37.056Z,99439.29
2019-02-02T22:01:44.327Z,99432.27
2019-02-02T22:03:51.680Z,99435.53
2019-02-02T22:05:58.967Z,99451.52
2019-02-02T22:08:07.176Z,99449.26
2019-02-02T22:10:14.619Z,99446.27
2019-02-02T22:12:21.743Z,99455.12
2019-02-02T22:14:28.828Z,99453.28
2019-02-02T22:16:36.107Z,99454.55
2019-02-02T22:18:43.233Z,99463.47
2019-02-02T22:20:50.398Z,99463.66
2019-02-02T22:22:57.805Z,99463.49
2019-02-02T22:25:07.689Z,99464.57
2019-02-02T22:27:14.866Z,99466.72
2019-02-02T22:29:22.171Z,99464.26
2019-02-02T22:31:29.726Z,99466.28
2019-02-02T22:33:37.798Z,99463.80
2019-02-02T22:35:45.044Z,99462.13
2019-02-02T22:37:52.247Z,99468.13
2019-02-02T22:39:59.554Z,99473.69
2019-02-02T22:42:07.182Z,99473.23
2019-02-02T22:44:14.291Z,99471.02
2019-02-02T22:46:21.461Z,99477.46
2019-02-02T22:48:28.601Z,99484.18
2019-02-02T22:50:35.890Z,99493.11
2019-02-02T22:52:43.255Z,99495.56
2019-02-02T22:54:50.407Z,99500.73
2019-02-02T22:56:57.978Z,99498.38
2019-02-02T22:59:05.195Z,99490.89
2019-02-02T23:01:29.503Z,99495.46
2019-02-02T23:03:51.402Z,99500.87
2019-02-02T23:06:51.554Z,99509.73
2019-02-02T23:10:36.418Z,99510.70
2019-02-02T23:13:57.350Z,99508.84
2019-02-02T23:16:29.656Z,99509.70
2019-02-02T23:18:36.852Z,99519.06
2019-02-02T23:20:44.442Z,99523.38
2019-02-02T23:22:51.451Z,99524.85
2019-02-02T23:24:58.529Z,99517.22
2019-02-02T23:27:06.008Z,99518.53
2019-02-02T23:29:13.439Z,99520.92
2019-02-02T23:31:20.951Z,99525.20
2019-02-02T23:33:28.423Z,99528.31
2019-02-02T23:35:36.179Z,99534.63
2019-02-02T23:37:43.696Z,99539.77
2019-02-02T23:39:51.055Z,99545.21
2019-02-02T23:41:58.468Z,99549.55
2019-02-02T23:44:05.859Z,99546.59
2019-02-02T23:46:13.284Z,99555.78
2019-02-02T23:48:20.734Z,99544.69
2019-02-02T23:50:28.098Z,99551.26
2019-02-02T23:52:35.621Z,99543.26
2019-02-02T23:54:42.937Z,99548.73
2019-02-02T23:56:50.231Z,99544.94
2019-02-02T23:58:57.221Z,99542.02
